createdAt,value
2023-02-11T00:01:39.700Z,3.35
2023-02-11T00:04:08.464Z,4.62
2023-02-11T00:06:36.617Z,3.30
2023-02-11T00:09:06.091Z,3.53
2023-02-11T00:11:34.903Z,4.87
2023-02-11T00:14:12.421Z,4.28
2023-02-11T00:16:41.104Z,3.45
2023-02-11T00:19:09.840Z,3.53
2023-02-11T00:21:38.344Z,2.67
2023-02-11T00:24:06.873Z,3.58
2023-02-11T00:26:36.345Z,3.67
2023-02-11T00:29:05.791Z,4.00
2023-02-11T00:31:35.140Z,2.72
2023-02-11T00:34:03.350Z,3.03
2023-02-11T00:36:31.691Z,4.80
2023-02-11T00:39:00.860Z,5.07
2023-02-11T00:41:29.845Z,4.40
2023-02-11T00:44:01.483Z,3.92
2023-02-11T00:46:30.419Z,3.75
2023-02-11T00:48:59.109Z,4.22
2023-02-11T00:51:32.856Z,3.40
2023-02-11T00:54:01.221Z,3.33
2023-02-11T00:56:29.285Z,4.32
2023-02-11T00:58:57.731Z,3.30
2023-02-11T01:01:26.613Z,3.05
2023-02-11T01:03:55.073Z,2.92
2023-02-11T01:06:24.084Z,3.80
2023-02-11T01:08:53.000Z,3.90
2023-02-11T01:11:22.273Z,4.15
2023-02-11T01:13:51.079Z,4.25
2023-02-11T01:16:20.612Z,3.45
2023-02-11T01:18:49.034Z,4.78
2023-02-11T01:21:18.964Z,4.28
2023-02-11T01:23:47.737Z,4.18
2023-02-11T01:26:16.170Z,4.82
2023-02-11T01:28:44.534Z,4.43
2023-02-11T01:31:13.227Z,5.07
2023-02-11T01:33:41.705Z,4.93
2023-02-11T01:36:11.855Z,3.20
2023-02-11T01:38:41.248Z,3.33
2023-02-11T01:41:12.510Z,5.18
2023-02-11T01:43:44.853Z,2.22
2023-02-11T01:46:20.706Z,3.35
2023-02-11T01:48:54.662Z,4.43
2023-02-11T01:51:27.889Z,4.22
2023-02-11T01:54:17.007Z,2.95
2023-02-11T01:57:08.356Z,3.53
2023-02-11T01:59:45.132Z,2.33
2023-02-11T02:02:17.665Z,3.78
2023-02-11T02:05:17.335Z,3.72
2023-02-11T02:08:17.714Z,4.25
2023-02-11T02:10:49.203Z,4.20
2023-02-11T02:13:17.671Z,4.25
2023-02-11T02:15:53.488Z,3.53
2023-02-11T02:18:40.639Z,4.57
2023-02-11T02:21:49.645Z,4.25
2023-02-11T02:24:51.249Z,5.12
2023-02-11T02:27:47.241Z,3.00
2023-02-11T02:35:57.892Z,2.10
2023-02-11T02:38:34.627Z,2.22
2023-02-11T02:41:13.030Z,3.70
2023-02-11T02:43:48.150Z,3.08
2023-02-11T02:46:20.883Z,4.55
2023-02-11T02:48:52.819Z,3.17
2023-02-11T02:51:39.959Z,2.92
2023-02-11T02:54:37.287Z,3.72
2023-02-11T02:57:42.494Z,5.18
2023-02-11T03:00:52.467Z,2.97
2023-02-11T03:03:20.543Z,3.22
2023-02-11T03:05:58.734Z,3.58
2023-02-11T03:08:46.094Z,3.28
2023-02-11T03:11:17.509Z,3.37
2023-02-11T03:13:47.742Z,2.95
2023-02-11T03:16:25.661Z,4.10
2023-02-11T03:19:06.145Z,3.97
2023-02-11T03:21:39.215Z,4.72
2023-02-11T03:24:13.309Z,4.10
2023-02-11T03:26:52.834Z,2.83
2023-02-11T03:29:59.795Z,3.42
2023-02-11T03:32:37.031Z,3.67
2023-02-11T03:35:23.042Z,4.32
2023-02-11T03:38:02.481Z,4.22
2023-02-11T03:40:35.346Z,4.32
2023-02-11T03:43:14.154Z,2.70
2023-02-11T03:45:42.272Z,3.00
2023-02-11T03:48:25.531Z,3.67
2023-02-11T03:50:56.318Z,4.15
2023-02-11T03:53:24.758Z,3.58
2023-02-11T03:55:57.212Z,4.70
2023-02-11T03:58:26.103Z,3.40
2023-02-11T04:00:54.450Z,2.75
2023-02-11T04:03:22.966Z,4.15
2023-02-11T04:05:51.583Z,3.85
2023-02-11T04:08:20.473Z,3.85
2023-02-11T04:10:48.906Z,4.25
2023-02-11T04:13:17.040Z,3.25
2023-02-11T04:15:47.809Z,6.62
2023-02-11T04:18:17.449Z,3.72
2023-02-11T04:20:45.676Z,2.37
2023-02-11T04:23:14.050Z,4.47
2023-02-11T04:25:44.700Z,3.35
2023-02-11T04:28:13.382Z,3.55
2023-02-11T04:30:47.948Z,3.15
2023-02-11T04:33:19.057Z,3.42
2023-02-11T04:35:50.871Z,5.47
2023-02-11T04:38:19.707Z,2.28
2023-02-11T04:40:48.214Z,3.37
2023-02-11T04:43:16.476Z,2.62
2023-02-11T04:45:44.859Z,2.03
2023-02-11T04:48:13.004Z,2.75
2023-02-11T04:50:41.700Z,3.42
2023-02-11T04:53:15.625Z,2.85
2023-02-11T04:55:43.717Z,2.53
2023-02-11T04:58:12.103Z,2.65
2023-02-11T05:00:40.370Z,2.97
2023-02-11T05:03:08.489Z,2.08
2023-02-11T05:05:43.486Z,2.45
2023-02-11T05:10:42.697Z,2.35
2023-02-11T05:13:10.864Z,3.60
2023-02-11T05:15:39.111Z,2.70
2023-02-11T05:18:07.613Z,3.65
2023-02-11T05:20:38.888Z,3.03
2023-02-11T05:23:07.440Z,2.47
2023-02-11T05:25:35.576Z,2.55
2023-02-11T05:28:04.986Z,3.00
2023-02-11T05:30:33.934Z,3.10
2023-02-11T05:33:01.964Z,3.62
2023-02-11T05:35:30.125Z,3.20
2023-02-11T05:37:58.522Z,4.53
2023-02-11T05:40:26.826Z,3.83
2023-02-11T05:42:55.071Z,2.85
2023-02-11T05:45:23.395Z,3.58
2023-02-11T05:47:51.463Z,5.00
2023-02-11T05:50:19.786Z,4.60
2023-02-11T05:52:48.328Z,3.78
2023-02-11T05:55:19.496Z,5.72
2023-02-11T05:57:48.035Z,2.35
2023-02-11T06:00:22.384Z,3.43
2023-02-11T06:02:50.978Z,4.32
2023-02-11T06:05:19.528Z,3.50
2023-02-11T06:07:48.056Z,3.25
2023-02-11T06:10:18.852Z,4.50
2023-02-11T06:12:56.812Z,1.87
2023-02-11T06:15:25.926Z,4.62
2023-02-11T06:17:54.756Z,4.68
2023-02-11T06:20:25.540Z,4.25
2023-02-11T06:22:54.156Z,6.40
2023-02-11T06:25:22.163Z,5.07
2023-02-11T06:27:50.412Z,4.37
2023-02-11T06:30:18.993Z,4.80
2023-02-11T06:32:47.550Z,6.12
2023-02-11T06:35:15.750Z,5.07
2023-02-11T06:37:44.245Z,4.10
2023-02-11T06:40:12.959Z,5.47
2023-02-11T06:42:41.824Z,4.50
2023-02-11T06:45:11.132Z,4.03
2023-02-11T06:47:40.664Z,4.72
2023-02-11T06:50:13.281Z,5.22
2023-02-11T06:52:41.784Z,6.07
2023-02-11T06:55:09.959Z,3.22
2023-02-11T06:57:38.235Z,6.45
2023-02-11T07:00:07.403Z,6.32
2023-02-11T07:02:36.436Z,5.97
2023-02-11T07:05:06.859Z,6.85
2023-02-11T07:07:37.044Z,5.90
2023-02-11T07:10:05.964Z,6.10
2023-02-11T07:12:34.733Z,4.45
2023-02-11T07:15:03.472Z,3.75
2023-02-11T07:17:31.719Z,7.75
2023-02-11T07:20:00.044Z,5.10
2023-02-11T07:22:28.478Z,4.60
2023-02-11T07:24:56.575Z,4.40
2023-02-11T07:27:24.684Z,5.85
2023-02-11T07:29:53.219Z,4.78
2023-02-11T07:32:21.839Z,5.53
2023-02-11T07:34:50.051Z,6.78
2023-02-11T07:37:18.832Z,5.43
2023-02-11T07:39:46.982Z,4.47
2023-02-11T07:42:15.222Z,6.68
2023-02-11T07:44:44.197Z,5.18
2023-02-11T07:47:12.336Z,5.90
2023-02-11T07:49:40.605Z,6.18
2023-02-11T07:52:09.382Z,5.53
2023-02-11T07:54:40.466Z,6.50
2023-02-11T07:57:09.012Z,4.30
2023-02-11T07:59:37.455Z,6.40
2023-02-11T08:02:05.867Z,7.57
2023-02-11T08:04:34.786Z,7.30
2023-02-11T08:07:03.017Z,7.45
2023-02-11T08:09:33.462Z,7.62
2023-02-11T08:12:03.238Z,7.78
2023-02-11T08:14:32.838Z,8.00
2023-02-11T08:17:01.101Z,6.50
2023-02-11T08:19:29.767Z,8.70
2023-02-11T08:21:59.944Z,11.98
2023-02-11T08:24:28.533Z,11.68
2023-02-11T08:26:56.898Z,7.45
2023-02-11T08:29:25.242Z,8.20
2023-02-11T08:31:53.641Z,6.72
2023-02-11T08:34:22.273Z,10.00
2023-02-11T08:36:50.315Z,9.23
2023-02-11T08:39:21.295Z,9.57
2023-02-11T08:41:53.095Z,11.48
2023-02-11T08:44:22.171Z,8.90
2023-02-11T08:46:51.667Z,9.13
2023-02-11T08:49:20.742Z,11.60
2023-02-11T08:51:50.701Z,10.73
2023-02-11T08:54:19.494Z,10.70
2023-02-11T08:56:52.001Z,9.80
2023-02-11T08:59:20.844Z,9.27
2023-02-11T09:01:49.550Z,9.95
2023-02-11T09:04:17.971Z,8.63
2023-02-11T09:06:46.602Z,8.82
2023-02-11T09:09:15.851Z,7.82
2023-02-11T09:11:44.893Z,9.68
2023-02-11T09:14:20.474Z,10.45
2023-02-11T09:16:49.415Z,8.52
2023-02-11T09:19:18.352Z,9.85
2023-02-11T09:21:47.034Z,8.20
2023-02-11T09:24:15.893Z,9.10
2023-02-11T09:26:44.786Z,9.13
2023-02-11T09:29:13.641Z,8.50
2023-02-11T09:31:42.421Z,7.70
2023-02-11T09:34:11.912Z,9.82
2023-02-11T09:36:41.205Z,8.40
2023-02-11T09:39:13.708Z,6.32
2023-02-11T09:42:03.518Z,6.30
2023-02-11T09:44:35.055Z,5.47
2023-02-11T09:47:24.089Z,5.65
2023-02-11T09:50:00.691Z,6.50
2023-02-11T09:52:51.816Z,5.82
2023-02-11T09:55:45.272Z,5.95
2023-02-11T09:58:15.212Z,5.90
2023-02-11T10:01:13.290Z,5.62
2023-02-11T10:04:05.357Z,5.55
2023-02-11T10:07:03.674Z,4.55
2023-02-11T10:09:47.083Z,6.28
2023-02-11T10:12:35.616Z,6.20
2023-02-11T10:15:13.700Z,6.65
2023-02-11T10:18:16.674Z,5.90
2023-02-11T10:21:02.528Z,5.85
2023-02-11T10:26:03.308Z,4.65
2023-02-11T10:28:35.089Z,4.78
2023-02-11T10:31:24.798Z,6.78
2023-02-11T10:34:04.744Z,5.85
2023-02-11T10:36:42.047Z,5.43
2023-02-11T10:39:22.234Z,5.85
2023-02-11T10:41:54.866Z,5.40
2023-02-11T10:44:29.025Z,5.32
2023-02-11T10:47:02.112Z,6.35
2023-02-11T10:49:35.346Z,5.85
2023-02-11T10:52:27.019Z,6.07
2023-02-11T10:55:10.595Z,4.40
2023-02-11T10:57:54.775Z,5.70
2023-02-11T11:00:42.520Z,4.47
2023-02-11T11:03:24.632Z,5.12
2023-02-11T11:05:59.944Z,5.10
2023-02-11T11:08:51.609Z,5.05
2023-02-11T11:11:25.690Z,5.03
2023-02-11T11:13:59.141Z,5.07
2023-02-11T11:16:36.860Z,6.57
2023-02-11T11:19:08.834Z,4.32
2023-02-11T11:21:48.325Z,5.62
2023-02-11T11:24:40.203Z,5.40
2023-02-11T11:27:19.724Z,6.72
2023-02-11T11:29:51.912Z,5.85
2023-02-11T11:32:24.137Z,5.15
2023-02-11T11:34:59.353Z,5.22
2023-02-11T11:37:29.827Z,5.47
2023-02-11T11:40:13.545Z,5.10
2023-02-11T11:42:42.343Z,4.70
2023-02-11T11:45:19.619Z,4.62
2023-02-11T11:47:54.658Z,5.47
2023-02-11T11:50:27.995Z,4.90
2023-02-11T11:53:00.278Z,3.97
2023-02-11T11:55:38.100Z,4.65
2023-02-11T11:58:15.411Z,4.85
2023-02-11T12:00:55.815Z,4.85
2023-02-11T12:03:33.639Z,4.65
2023-02-11T12:06:19.179Z,4.45
2023-02-11T12:09:07.957Z,5.28
2023-02-11T12:12:11.084Z,4.80
2023-02-11T12:14:58.394Z,4.68
2023-02-11T12:17:49.990Z,3.40
2023-02-11T12:20:33.004Z,4.65
2023-02-11T12:23:41.609Z,6.15
2023-02-11T12:26:46.344Z,4.68
2023-02-11T12:29:40.480Z,4.55
2023-02-11T12:33:05.149Z,4.95
2023-02-11T12:35:55.712Z,5.20
2023-02-11T12:38:46.421Z,3.97
2023-02-11T12:41:54.946Z,4.72
2023-02-11T12:44:36.641Z,4.32
2023-02-11T12:47:25.428Z,6.05
2023-02-11T12:50:28.133Z,4.07
2023-02-11T12:53:15.821Z,4.20
2023-02-11T12:55:49.680Z,4.15
2023-02-11T12:58:29.633Z,4.72
2023-02-11T13:01:16.828Z,4.07
2023-02-11T13:04:00.404Z,4.20
2023-02-11T13:06:36.249Z,4.22
2023-02-11T13:09:10.106Z,5.72
2023-02-11T13:11:51.906Z,3.78
2023-02-11T13:14:47.733Z,4.47
2023-02-11T13:17:27.565Z,5.00
2023-02-11T13:20:05.601Z,4.45
2023-02-11T13:22:48.897Z,4.78
2023-02-11T13:25:29.944Z,3.15
2023-02-11T13:28:23.941Z,4.53
2023-02-11T13:31:02.271Z,3.30
2023-02-11T13:33:33.020Z,4.10
2023-02-11T13:36:04.193Z,3.92
2023-02-11T13:38:33.764Z,5.32
2023-02-11T13:41:38.805Z,4.60
2023-02-11T13:44:10.748Z,4.20
2023-02-11T13:47:00.157Z,3.75
2023-02-11T13:49:41.197Z,4.75
2023-02-11T13:52:26.032Z,4.28
2023-02-11T13:54:59.255Z,4.25
2023-02-11T13:57:31.237Z,4.72
2023-02-11T14:00:27.463Z,4.53
2023-02-11T14:03:30.019Z,3.33
2023-02-11T14:06:38.391Z,4.35
2023-02-11T14:09:13.837Z,4.20
2023-02-11T14:11:51.627Z,3.85
2023-02-11T14:14:33.548Z,4.15
2023-02-11T14:17:07.975Z,3.62
2023-02-11T14:19:40.841Z,3.97
2023-02-11T14:22:13.789Z,4.03
2023-02-11T14:24:57.606Z,3.97
2023-02-11T14:27:55.330Z,3.90
2023-02-11T14:30:30.459Z,3.80
2023-02-11T14:33:20.271Z,4.70
2023-02-11T14:36:26.198Z,4.43
2023-02-11T14:39:16.066Z,4.37
2023-02-11T14:41:47.234Z,2.72
2023-02-11T14:44:18.043Z,3.62
2023-02-11T14:46:50.193Z,4.62
2023-02-11T14:49:27.618Z,4.05
2023-02-11T14:52:07.752Z,4.72
2023-02-11T14:54:36.475Z,4.60
2023-02-11T14:57:06.230Z,5.18
2023-02-11T14:59:34.623Z,5.22
2023-02-11T15:02:03.200Z,4.37
2023-02-11T15:04:36.193Z,4.95
2023-02-11T15:07:07.317Z,5.15
2023-02-11T15:09:54.437Z,4.28
2023-02-11T15:12:26.682Z,5.30
2023-02-11T15:14:58.954Z,4.45
2023-02-11T15:17:30.854Z,4.75
2023-02-11T15:20:02.508Z,4.55
2023-02-11T15:22:36.801Z,4.78
2023-02-11T15:25:17.489Z,3.87
2023-02-11T15:27:51.372Z,5.43
2023-02-11T15:30:29.737Z,5.20
2023-02-11T15:33:00.525Z,5.87
2023-02-11T15:35:36.675Z,4.10
2023-02-11T15:38:05.792Z,5.03
2023-02-11T15:40:36.794Z,4.43
2023-02-11T15:43:08.544Z,5.07
2023-02-11T15:45:41.620Z,4.43
2023-02-11T15:48:16.268Z,4.55
2023-02-11T15:50:52.180Z,5.50
2023-02-11T15:53:31.586Z,4.80
2023-02-11T15:56:30.777Z,4.80
2023-02-11T15:59:09.403Z,4.10
2023-02-11T16:01:39.631Z,3.45
2023-02-11T16:04:19.929Z,4.45
2023-02-11T16:06:50.075Z,4.53
2023-02-11T16:09:18.884Z,5.00
2023-02-11T16:11:47.357Z,5.37
2023-02-11T16:14:28.151Z,4.70
2023-02-11T16:17:03.718Z,6.10
2023-02-11T16:19:34.108Z,5.35
2023-02-11T16:22:09.326Z,5.37
2023-02-11T16:24:39.412Z,3.72
2023-02-11T16:27:35.156Z,5.32
2023-02-11T16:30:05.598Z,4.32
2023-02-11T16:32:34.616Z,5.57
2023-02-11T16:35:10.904Z,5.12
2023-02-11T16:37:39.700Z,4.47
2023-02-11T16:40:09.815Z,4.87
2023-02-11T16:42:38.435Z,4.93
2023-02-11T16:45:07.100Z,4.12
2023-02-11T16:47:36.074Z,4.43
2023-02-11T16:50:09.483Z,3.37
2023-02-11T16:52:38.398Z,4.07
2023-02-11T16:55:06.931Z,4.37
2023-02-11T16:57:35.584Z,4.57
2023-02-11T17:00:06.698Z,5.07
2023-02-11T17:02:37.272Z,5.20
2023-02-11T17:05:08.540Z,4.72
2023-02-11T17:07:36.861Z,3.87
2023-02-11T17:10:14.386Z,5.95
2023-02-11T17:12:43.331Z,4.87
2023-02-11T17:15:11.688Z,4.10
2023-02-11T17:17:40.088Z,6.40
2023-02-11T17:20:12.883Z,5.15
2023-02-11T17:22:41.508Z,5.45
2023-02-11T17:25:10.688Z,4.05
2023-02-11T17:27:39.182Z,5.75
2023-02-11T17:30:09.375Z,4.75
2023-02-11T17:32:38.252Z,5.18
2023-02-11T17:35:07.882Z,4.87
2023-02-11T17:37:36.213Z,4.05
2023-02-11T17:40:05.563Z,4.57
2023-02-11T17:42:34.128Z,4.37
2023-02-11T17:45:03.042Z,4.62
2023-02-11T17:47:31.923Z,4.62
2023-02-11T17:50:00.376Z,3.90
2023-02-11T17:52:29.072Z,5.03
2023-02-11T17:54:58.141Z,4.65
2023-02-11T17:57:26.554Z,3.70
2023-02-11T17:59:55.205Z,4.20
2023-02-11T18:02:24.113Z,4.37
2023-02-11T18:04:53.340Z,5.20
2023-02-11T18:07:21.982Z,3.75
2023-02-11T18:09:50.696Z,4.25
2023-02-11T18:12:26.460Z,4.90
2023-02-11T18:14:57.874Z,4.97
2023-02-11T18:17:26.962Z,4.37
2023-02-11T18:19:57.160Z,4.82
2023-02-11T18:22:26.068Z,5.15
2023-02-11T18:24:55.316Z,5.03
2023-02-11T18:27:23.634Z,3.50
2023-02-11T18:29:52.244Z,4.68
2023-02-11T18:32:20.970Z,4.05
2023-02-11T18:34:49.616Z,3.90
2023-02-11T18:37:18.065Z,4.15
2023-02-11T18:39:46.912Z,3.53
2023-02-11T18:42:15.397Z,4.65
2023-02-11T18:44:44.823Z,3.70
2023-02-11T18:47:13.470Z,3.45
2023-02-11T18:49:45.371Z,3.35
2023-02-11T18:52:14.200Z,4.62
2023-02-11T18:54:42.591Z,3.22
2023-02-11T18:57:11.061Z,4.07
2023-02-11T18:59:40.036Z,3.90
2023-02-11T19:02:09.569Z,3.72
2023-02-11T19:04:38.341Z,5.20
2023-02-11T19:07:07.295Z,5.85
2023-02-11T19:09:36.111Z,3.28
2023-02-11T19:12:04.806Z,4.35
2023-02-11T19:14:34.902Z,3.92
2023-02-11T19:17:06.163Z,4.72
2023-02-11T19:19:36.587Z,5.62
2023-02-11T19:22:10.597Z,5.07
2023-02-11T19:24:39.950Z,4.40
2023-02-11T19:27:08.416Z,2.60
2023-02-11T19:29:36.846Z,2.83
2023-02-11T19:32:06.767Z,3.92
2023-02-11T19:34:41.224Z,4.40
2023-02-11T19:37:12.937Z,3.37
2023-02-11T19:39:42.729Z,3.65
2023-02-11T19:42:12.918Z,3.42
2023-02-11T19:44:42.305Z,3.78
2023-02-11T19:47:12.791Z,4.05
2023-02-11T19:49:41.363Z,3.72
2023-02-11T19:52:09.754Z,3.97
2023-02-11T19:54:38.619Z,3.50
2023-02-11T19:57:07.144Z,4.30
2023-02-11T19:59:35.635Z,4.03
2023-02-11T20:02:04.558Z,5.10
2023-02-11T20:04:33.371Z,3.45
2023-02-11T20:07:01.511Z,4.60
2023-02-11T20:09:31.825Z,3.22
2023-02-11T20:12:00.732Z,3.12
2023-02-11T20:14:29.441Z,4.45
2023-02-11T20:16:57.945Z,3.35
2023-02-11T20:19:27.982Z,4.05
2023-02-11T20:21:56.408Z,3.80
2023-02-11T20:24:25.539Z,4.35
2023-02-11T20:26:57.185Z,3.42
2023-02-11T20:29:26.104Z,3.50
2023-02-11T20:31:55.747Z,3.65
2023-02-11T20:34:25.365Z,4.37
2023-02-11T20:36:54.848Z,4.47
2023-02-11T20:39:25.092Z,3.97
2023-02-11T20:41:54.019Z,4.22
2023-02-11T20:44:23.444Z,3.60
2023-02-11T20:46:54.148Z,3.33
2023-02-11T20:49:25.004Z,3.53
2023-02-11T20:51:54.149Z,4.80
2023-02-11T20:54:24.636Z,3.35
2023-02-11T20:56:56.871Z,2.58
2023-02-11T20:59:26.480Z,3.00
2023-02-11T21:01:56.522Z,4.07
2023-02-11T21:04:29.971Z,3.10
2023-02-11T21:07:01.581Z,3.53
2023-02-11T21:09:32.428Z,3.47
2023-02-11T21:12:01.883Z,3.33
2023-02-11T21:14:30.522Z,2.37
2023-02-11T21:16:59.129Z,3.45
2023-02-11T21:19:28.985Z,3.95
2023-02-11T21:22:00.668Z,4.43
2023-02-11T21:24:30.973Z,3.15
2023-02-11T21:26:59.342Z,2.62
2023-02-11T21:29:27.771Z,3.55
2023-02-11T21:31:56.453Z,3.28
2023-02-11T21:34:24.778Z,3.40
2023-02-11T21:36:53.130Z,3.30
2023-02-11T21:39:21.917Z,2.78
2023-02-11T21:41:50.185Z,4.37
2023-02-11T21:44:19.196Z,3.00
2023-02-11T21:46:48.151Z,2.70
2023-02-11T21:49:16.490Z,3.72
2023-02-11T21:51:45.055Z,3.40
2023-02-11T21:54:13.856Z,2.65
2023-02-11T21:56:42.312Z,4.07
2023-02-11T21:59:14.192Z,3.08
2023-02-11T22:01:45.022Z,2.83
2023-02-11T22:04:13.994Z,3.65
2023-02-11T22:06:42.193Z,3.15
2023-02-11T22:09:11.117Z,3.28
2023-02-11T22:11:40.570Z,3.33
2023-02-11T22:14:08.976Z,3.78
2023-02-11T22:16:37.524Z,2.50
2023-02-11T22:19:07.555Z,3.83
2023-02-11T22:21:36.033Z,3.10
2023-02-11T22:24:04.273Z,3.25
2023-02-11T22:26:33.144Z,3.10
2023-02-11T22:29:01.473Z,3.15
2023-02-11T22:31:32.465Z,2.50
2023-02-11T22:34:03.373Z,3.65
2023-02-11T22:36:35.752Z,3.28
2023-02-11T22:39:07.507Z,3.75
2023-02-11T22:41:35.770Z,2.80
2023-02-11T22:44:04.571Z,2.95
2023-02-11T22:46:32.949Z,3.87
2023-02-11T22:49:01.848Z,2.33
2023-02-11T22:51:30.996Z,3.00
2023-02-11T22:54:03.258Z,4.90
2023-02-11T22:56:33.686Z,3.78
2023-02-11T22:59:07.353Z,2.70
2023-02-11T23:01:36.128Z,3.47
2023-02-11T23:04:08.451Z,4.85
2023-02-11T23:06:37.186Z,4.03
2023-02-11T23:09:08.219Z,3.95
2023-02-11T23:11:36.997Z,2.70
2023-02-11T23:14:05.696Z,2.72
2023-02-11T23:16:34.707Z,2.87
2023-02-11T23:19:06.253Z,2.70
2023-02-11T23:21:37.104Z,3.30
2023-02-11T23:24:10.474Z,2.85
2023-02-11T23:26:39.955Z,2.92
2023-02-11T23:29:09.233Z,2.42
2023-02-11T23:31:40.496Z,2.90
2023-02-11T23:34:09.383Z,3.45
2023-02-11T23:36:37.655Z,3.75
2023-02-11T23:39:06.218Z,3.10
2023-02-11T23:41:34.788Z,3.53
2023-02-11T23:44:02.948Z,3.00
2023-02-11T23:46:31.562Z,2.78
2023-02-11T23:49:00.239Z,3.70
2023-02-11T23:51:28.417Z,2.92
2023-02-11T23:53:56.873Z,2.78
2023-02-11T23:56:27.988Z,2.80
2023-02-11T23:58:58.497Z,2.47
